createdAt,value
2022-12-08T00:00:14.062Z,19.54
2022-12-08T00:01:14.052Z,19.54
2022-12-08T00:02:14.133Z,19.54
2022-12-08T00:03:14.061Z,19.54
2022-12-08T00:04:13.934Z,19.55
2022-12-08T00:05:13.903Z,19.54
2022-12-08T00:06:13.875Z,19.54
2022-12-08T00:07:13.870Z,19.51
2022-12-08T00:08:13.902Z,19.54
2022-12-08T00:09:13.775Z,19.54
2022-12-08T00:10:46.638Z,19.51
2022-12-08T00:11:13.714Z,19.55
2022-12-08T00:12:13.686Z,19.54
2022-12-08T00:13:13.667Z,19.55
2022-12-08T00:14:13.628Z,19.55
2022-12-08T00:15:13.587Z,19.55
2022-12-08T00:16:13.640Z,19.55
2022-12-08T00:17:13.533Z,19.55
2022-12-08T00:18:13.491Z,19.54
2022-12-08T00:19:13.503Z,19.51
2022-12-08T00:20:13.439Z,19.54
2022-12-08T00:21:13.399Z,19.51
2022-12-08T00:22:13.413Z,19.54
2022-12-08T00:23:13.340Z,19.54
2022-12-08T00:24:13.313Z,19.54
2022-12-08T00:25:13.312Z,19.51
2022-12-08T00:26:13.256Z,19.51
2022-12-08T00:27:13.219Z,19.51
2022-12-08T00:28:13.176Z,19.51
2022-12-08T00:29:17.167Z,19.50
2022-12-08T00:30:13.119Z,19.51
2022-12-08T00:31:13.123Z,19.51
2022-12-08T00:32:13.204Z,19.51
2022-12-08T00:33:13.024Z,19.51
2022-12-08T00:34:12.983Z,19.54
2022-12-08T00:35:12.956Z,19.54
2022-12-08T00:36:12.916Z,19.54
2022-12-08T00:37:12.916Z,19.54
2022-12-08T00:38:12.842Z,19.51
2022-12-08T00:39:12.807Z,19.55
2022-12-08T00:40:12.765Z,19.54
2022-12-08T00:41:12.720Z,19.54
2022-12-08T00:42:12.701Z,19.54
2022-12-08T00:43:12.681Z,19.55
2022-12-08T00:44:12.616Z,19.55
2022-12-08T00:45:12.583Z,19.55
2022-12-08T00:46:12.627Z,19.56
2022-12-08T00:47:12.501Z,19.55
2022-12-08T00:48:12.464Z,19.55
2022-12-08T00:49:12.476Z,19.56
2022-12-08T00:50:12.460Z,19.58
2022-12-08T00:51:12.364Z,19.56
2022-12-08T00:52:12.337Z,19.56
2022-12-08T00:53:12.309Z,19.58
2022-12-08T00:54:12.278Z,19.58
2022-12-08T00:55:12.277Z,19.58
2022-12-08T00:56:12.223Z,19.58
2022-12-08T00:57:12.201Z,19.59
2022-12-08T00:58:12.161Z,19.59
2022-12-08T00:59:12.135Z,19.59
2022-12-08T01:00:12.101Z,19.58
2022-12-08T01:01:12.162Z,19.59
2022-12-08T01:02:12.036Z,19.59
2022-12-08T01:03:12.093Z,19.59
2022-12-08T01:04:11.961Z,19.61
2022-12-08T01:05:11.922Z,19.62
2022-12-08T01:06:11.893Z,19.62
2022-12-08T01:07:11.889Z,19.61
2022-12-08T01:08:11.938Z,19.62
2022-12-08T01:09:11.798Z,19.61
2022-12-08T01:10:11.762Z,19.61
2022-12-08T01:11:11.725Z,19.62
2022-12-08T01:12:11.698Z,19.61
2022-12-08T01:13:11.693Z,19.62
2022-12-08T01:14:11.629Z,19.61
2022-12-08T01:15:11.593Z,19.62
2022-12-08T01:16:11.626Z,19.59
2022-12-08T01:17:11.588Z,19.59
2022-12-08T01:18:11.517Z,19.61
2022-12-08T01:19:11.881Z,19.61
2022-12-08T01:20:11.437Z,19.61
2022-12-08T01:21:11.398Z,19.61
2022-12-08T01:22:11.362Z,19.61
2022-12-08T01:23:11.330Z,19.61
2022-12-08T01:24:11.295Z,19.59
2022-12-08T01:25:11.287Z,19.59
2022-12-08T01:26:11.209Z,19.61
2022-12-08T01:27:11.182Z,19.59
2022-12-08T01:28:11.145Z,19.59
2022-12-08T01:29:11.115Z,19.61
2022-12-08T01:30:11.081Z,19.59
2022-12-08T01:31:11.104Z,19.58
2022-12-08T01:32:11.002Z,19.58
2022-12-08T01:33:10.981Z,19.61
2022-12-08T01:34:10.943Z,19.59
2022-12-08T01:35:10.910Z,19.59
2022-12-08T01:36:10.868Z,19.61
2022-12-08T01:37:10.871Z,19.59
2022-12-08T01:38:10.802Z,19.59
2022-12-08T01:39:10.784Z,19.59
2022-12-08T01:40:10.736Z,19.59
2022-12-08T01:41:10.702Z,19.59
2022-12-08T01:42:10.663Z,19.58
2022-12-08T01:43:10.670Z,19.58
2022-12-08T01:44:10.623Z,19.58
2022-12-08T01:45:10.568Z,19.58
2022-12-08T01:46:10.615Z,19.58
2022-12-08T01:47:10.499Z,19.59
2022-12-08T01:48:10.537Z,19.58
2022-12-08T01:49:10.463Z,19.58
2022-12-08T01:50:10.419Z,19.58
2022-12-08T01:51:17.107Z,19.56
2022-12-08T01:52:10.355Z,19.58
2022-12-08T01:53:10.329Z,19.58
2022-12-08T01:54:10.295Z,19.58
2022-12-08T01:55:10.280Z,19.58
2022-12-08T01:56:10.240Z,19.59
2022-12-08T01:57:10.215Z,19.56
2022-12-08T01:58:10.170Z,19.58
2022-12-08T01:59:10.136Z,19.58
2022-12-08T02:00:10.108Z,19.58
2022-12-08T02:01:10.202Z,19.58
2022-12-08T02:02:10.090Z,19.58
2022-12-08T02:03:10.020Z,19.58
2022-12-08T02:04:09.980Z,19.58
2022-12-08T02:05:09.944Z,19.58
2022-12-08T02:06:09.913Z,19.56
2022-12-08T02:07:09.917Z,19.58
2022-12-08T02:08:10.108Z,19.58
2022-12-08T02:09:09.817Z,19.59
2022-12-08T02:10:09.780Z,19.59
2022-12-08T02:11:09.752Z,19.59
2022-12-08T02:12:09.709Z,19.61
2022-12-08T02:13:09.700Z,19.61
2022-12-08T02:14:09.628Z,19.59
2022-12-08T02:15:09.588Z,19.59
2022-12-08T02:16:09.689Z,19.59
2022-12-08T02:17:09.525Z,19.59
2022-12-08T02:18:09.488Z,19.59
2022-12-08T02:19:30.422Z,19.58
2022-12-08T02:20:09.426Z,19.58
2022-12-08T02:21:09.385Z,19.59
2022-12-08T02:22:09.347Z,19.59
2022-12-08T02:23:09.306Z,19.59
2022-12-08T02:24:09.269Z,19.61
2022-12-08T02:25:09.369Z,19.61
2022-12-08T02:26:09.201Z,19.61
2022-12-08T02:27:09.145Z,19.61
2022-12-08T02:28:09.113Z,19.61
2022-12-08T02:29:09.072Z,19.61
2022-12-08T02:30:09.042Z,19.61
2022-12-08T02:31:09.087Z,19.61
2022-12-08T02:32:08.953Z,19.61
2022-12-08T02:33:08.926Z,19.62
2022-12-08T02:34:08.892Z,19.61
2022-12-08T02:35:08.857Z,19.62
2022-12-08T02:36:08.809Z,19.61
2022-12-08T02:37:08.823Z,19.61
2022-12-08T02:38:08.750Z,19.62
2022-12-08T02:39:08.713Z,19.61
2022-12-08T02:40:08.811Z,19.61
2022-12-08T02:41:08.641Z,19.61
2022-12-08T02:42:08.606Z,19.61
2022-12-08T02:43:08.593Z,19.61
2022-12-08T02:44:08.521Z,19.61
2022-12-08T02:45:08.490Z,19.62
2022-12-08T02:46:08.533Z,19.61
2022-12-08T02:47:08.417Z,19.61
2022-12-08T02:48:08.386Z,19.61
2022-12-08T02:49:08.381Z,19.61
2022-12-08T02:50:08.312Z,19.61
2022-12-08T02:51:08.285Z,19.59
2022-12-08T02:52:08.231Z,19.59
2022-12-08T02:53:37.843Z,19.61
2022-12-08T02:54:38.855Z,19.61
2022-12-08T02:55:38.819Z,19.59
2022-12-08T02:56:38.806Z,19.59
2022-12-08T02:57:38.804Z,19.59
2022-12-08T02:58:38.782Z,19.59
2022-12-08T02:59:38.774Z,19.61
2022-12-08T03:00:38.790Z,19.59
2022-12-08T03:01:38.813Z,19.59
2022-12-08T03:02:38.816Z,19.58
2022-12-08T03:03:38.728Z,19.58
2022-12-08T03:04:38.723Z,19.59
2022-12-08T03:05:38.717Z,19.58
2022-12-08T03:06:38.742Z,19.58
2022-12-08T03:07:38.758Z,19.58
2022-12-08T03:08:38.678Z,19.58
2022-12-08T03:09:38.663Z,19.58
2022-12-08T03:10:38.655Z,19.59
2022-12-08T03:11:38.635Z,19.56
2022-12-08T03:12:38.658Z,19.58
2022-12-08T03:13:38.622Z,19.58
2022-12-08T03:14:38.610Z,19.56
2022-12-08T03:15:38.636Z,19.58
2022-12-08T03:16:38.592Z,19.58
2022-12-08T03:17:38.579Z,19.56
2022-12-08T03:18:38.599Z,19.58
2022-12-08T03:19:38.556Z,19.56
2022-12-08T03:20:38.548Z,19.56
2022-12-08T03:21:38.541Z,19.56
2022-12-08T03:22:38.519Z,19.56
2022-12-08T03:23:38.511Z,19.55
2022-12-08T03:24:38.535Z,19.55
2022-12-08T03:25:38.491Z,19.56
2022-12-08T03:26:38.476Z,19.56
2022-12-08T03:27:38.475Z,19.55
2022-12-08T03:28:38.455Z,19.56
2022-12-08T03:29:38.451Z,19.55
2022-12-08T03:30:38.551Z,19.55
2022-12-08T03:31:38.536Z,19.56
2022-12-08T03:32:38.415Z,19.56
2022-12-08T03:33:38.409Z,19.56
2022-12-08T03:34:38.419Z,19.56
2022-12-08T03:35:38.379Z,19.56
2022-12-08T03:36:38.412Z,19.58
2022-12-08T03:37:38.362Z,19.56
2022-12-08T03:38:38.347Z,19.58
2022-12-08T03:39:38.340Z,19.58
2022-12-08T03:40:38.328Z,19.58
2022-12-08T03:41:38.320Z,19.58
2022-12-08T03:42:38.332Z,19.58
2022-12-08T03:43:38.288Z,19.58
2022-12-08T03:44:38.281Z,19.58
2022-12-08T03:45:38.270Z,19.59
2022-12-08T03:46:38.265Z,19.58
2022-12-08T03:47:38.248Z,19.59
2022-12-08T03:48:38.273Z,19.58
2022-12-08T03:49:38.233Z,19.59
2022-12-08T03:50:38.213Z,19.61
2022-12-08T03:51:38.208Z,19.59
2022-12-08T03:52:38.193Z,19.58
2022-12-08T03:53:38.189Z,19.58
2022-12-08T03:54:38.213Z,19.59
2022-12-08T03:55:38.167Z,19.59
2022-12-08T03:56:38.149Z,19.59
2022-12-08T03:57:38.141Z,19.59
2022-12-08T03:58:38.125Z,19.61
2022-12-08T03:59:38.116Z,19.61
2022-12-08T04:00:38.142Z,19.61
2022-12-08T04:01:38.329Z,19.62
2022-12-08T04:02:38.108Z,19.61
2022-12-08T04:03:38.069Z,19.61
2022-12-08T04:04:38.066Z,19.59
2022-12-08T04:05:38.049Z,19.61
2022-12-08T04:06:38.073Z,19.62
2022-12-08T04:07:38.073Z,19.61
2022-12-08T04:08:38.022Z,19.61
2022-12-08T04:09:38.013Z,19.61
2022-12-08T04:10:37.998Z,19.61
2022-12-08T04:11:37.982Z,19.59
2022-12-08T04:12:38.006Z,19.59
2022-12-08T04:13:37.970Z,19.59
2022-12-08T04:14:37.957Z,19.58
2022-12-08T04:15:38.060Z,19.58
2022-12-08T04:16:38.007Z,19.59
2022-12-08T04:17:37.918Z,19.59
2022-12-08T04:18:37.943Z,19.58
2022-12-08T04:19:37.898Z,19.59
2022-12-08T04:20:37.883Z,19.59
2022-12-08T04:21:37.882Z,19.59
2022-12-08T04:22:37.858Z,19.58
2022-12-08T04:23:37.851Z,19.59
2022-12-08T04:24:37.871Z,19.59
2022-12-08T04:25:37.831Z,19.59
2022-12-08T04:26:37.822Z,19.58
2022-12-08T04:27:37.806Z,19.58
2022-12-08T04:28:37.799Z,19.59
2022-12-08T04:29:37.786Z,19.58
2022-12-08T04:30:37.825Z,19.58
2022-12-08T04:31:37.902Z,19.59
2022-12-08T04:32:39.716Z,19.58
2022-12-08T04:33:37.751Z,19.56
2022-12-08T04:34:37.722Z,19.58
2022-12-08T04:35:37.718Z,19.58
2022-12-08T04:36:37.726Z,19.58
2022-12-08T04:37:37.698Z,19.56
2022-12-08T04:38:37.692Z,19.56
2022-12-08T04:39:37.679Z,19.56
2022-12-08T04:40:37.666Z,19.56
2022-12-08T04:41:37.661Z,19.56
2022-12-08T04:42:37.667Z,19.58
2022-12-08T04:43:37.631Z,19.58
2022-12-08T04:44:37.627Z,19.58
2022-12-08T04:45:37.612Z,19.56
2022-12-08T04:46:42.982Z,19.56
2022-12-08T04:47:37.591Z,19.58
2022-12-08T04:48:37.615Z,19.58
2022-12-08T04:49:37.560Z,19.55
2022-12-08T04:50:37.551Z,19.56
2022-12-08T04:51:37.544Z,19.56
2022-12-08T04:52:37.531Z,19.56
2022-12-08T04:53:39.947Z,19.58
2022-12-08T04:54:37.549Z,19.59
2022-12-08T04:55:37.500Z,19.59
2022-12-08T04:56:37.496Z,19.59
2022-12-08T04:57:37.485Z,19.59
2022-12-08T04:58:37.464Z,19.59
2022-12-08T04:59:37.452Z,19.59
2022-12-08T05:00:37.464Z,19.61
2022-12-08T05:01:37.638Z,19.62
2022-12-08T05:02:37.554Z,19.62
2022-12-08T05:03:37.409Z,19.63
2022-12-08T05:04:37.396Z,19.62
2022-12-08T05:05:37.397Z,19.63
2022-12-08T05:06:37.408Z,19.65
2022-12-08T05:07:37.434Z,19.66
2022-12-08T05:08:37.355Z,19.68
2022-12-08T05:09:37.348Z,19.66
2022-12-08T05:10:37.336Z,19.66
2022-12-08T05:11:37.328Z,19.65
2022-12-08T05:12:37.349Z,19.65
2022-12-08T05:13:37.308Z,19.63
2022-12-08T05:14:37.292Z,19.65
2022-12-08T05:15:37.284Z,19.63
2022-12-08T05:16:37.364Z,19.59
2022-12-08T05:17:37.252Z,19.59
2022-12-08T05:18:37.290Z,19.58
2022-12-08T05:19:37.239Z,19.58
2022-12-08T05:20:37.220Z,19.55
2022-12-08T05:21:37.208Z,19.56
2022-12-08T05:22:37.205Z,19.55
2022-12-08T05:23:37.196Z,19.56
2022-12-08T05:24:38.652Z,19.56
2022-12-08T05:25:37.175Z,19.55
2022-12-08T05:26:37.161Z,19.55
2022-12-08T05:27:37.150Z,19.54
2022-12-08T05:28:42.410Z,19.51
2022-12-08T05:29:37.132Z,19.51
2022-12-08T05:30:37.143Z,19.50
2022-12-08T05:31:37.197Z,19.50
2022-12-08T05:32:37.091Z,19.50
2022-12-08T05:33:37.081Z,19.51
2022-12-08T05:34:37.075Z,19.50
2022-12-08T05:35:37.061Z,19.50
2022-12-08T05:36:37.093Z,19.50
2022-12-08T05:37:37.042Z,19.47
2022-12-08T05:38:37.020Z,19.47
2022-12-08T05:39:37.014Z,19.47
2022-12-08T05:40:37.005Z,19.47
2022-12-08T05:41:36.993Z,19.47
2022-12-08T05:42:37.032Z,19.47
2022-12-08T05:43:36.973Z,19.47
2022-12-08T05:44:36.966Z,19.47
2022-12-08T05:45:37.068Z,19.48
2022-12-08T05:46:36.937Z,19.50
2022-12-08T05:47:36.921Z,19.51
2022-12-08T05:48:36.957Z,19.51
2022-12-08T05:49:36.910Z,19.50
2022-12-08T05:50:36.893Z,19.50
2022-12-08T05:51:36.885Z,19.48
2022-12-08T05:52:36.955Z,19.50
2022-12-08T05:53:36.865Z,19.48
2022-12-08T05:54:36.887Z,19.50
2022-12-08T05:55:36.843Z,19.48
2022-12-08T05:56:36.821Z,19.48
2022-12-08T05:57:36.814Z,19.47
2022-12-08T05:58:36.798Z,19.47
2022-12-08T05:59:36.800Z,19.46
2022-12-08T06:00:36.818Z,19.47
2022-12-08T06:01:36.852Z,19.46
2022-12-08T06:02:36.913Z,19.46
2022-12-08T06:03:36.803Z,19.44
2022-12-08T06:04:36.747Z,19.44
2022-12-08T06:05:36.738Z,19.46
2022-12-08T06:06:36.754Z,19.43
2022-12-08T06:07:36.786Z,19.43
2022-12-08T06:08:36.696Z,19.43
2022-12-08T06:09:36.686Z,19.41
2022-12-08T06:10:36.671Z,19.43
2022-12-08T06:11:36.659Z,19.43
2022-12-08T06:12:36.674Z,19.43
2022-12-08T06:13:36.634Z,19.41
2022-12-08T06:14:36.633Z,19.44
2022-12-08T06:15:36.622Z,19.44
2022-12-08T06:16:36.668Z,19.44
2022-12-08T06:17:36.639Z,19.44
2022-12-08T06:18:36.619Z,19.44
2022-12-08T06:19:36.575Z,19.44
2022-12-08T06:20:36.561Z,19.47
2022-12-08T06:21:36.555Z,19.47
2022-12-08T06:22:36.539Z,19.47
2022-12-08T06:23:36.531Z,19.47
2022-12-08T06:24:36.547Z,19.48
2022-12-08T06:25:36.504Z,19.47
2022-12-08T06:26:36.498Z,19.48
2022-12-08T06:27:36.486Z,19.47
2022-12-08T06:28:36.475Z,19.48
2022-12-08T06:29:36.459Z,19.48
2022-12-08T06:30:36.483Z,19.48
2022-12-08T06:31:36.543Z,19.48
2022-12-08T06:32:36.435Z,19.48
2022-12-08T06:33:36.419Z,19.48
2022-12-08T06:34:36.411Z,19.48
2022-12-08T06:35:36.399Z,19.50
2022-12-08T06:36:36.419Z,19.51
2022-12-08T06:37:36.383Z,19.51
2022-12-08T06:38:41.765Z,19.54
2022-12-08T06:39:36.360Z,19.54
2022-12-08T06:40:36.344Z,19.55
2022-12-08T06:41:36.336Z,19.56
2022-12-08T06:42:36.367Z,19.56
2022-12-08T06:43:36.316Z,19.56
2022-12-08T06:44:36.301Z,19.55
2022-12-08T06:45:36.317Z,19.58
2022-12-08T06:46:36.333Z,19.56
2022-12-08T06:47:36.317Z,19.58
2022-12-08T06:48:36.292Z,19.58
2022-12-08T06:49:36.244Z,19.56
2022-12-08T06:50:36.237Z,19.59
2022-12-08T06:51:36.220Z,19.58
2022-12-08T06:52:43.210Z,19.58
2022-12-08T06:53:36.209Z,19.58
2022-12-08T06:54:36.213Z,19.59
2022-12-08T06:55:58.758Z,19.56
2022-12-08T06:56:36.177Z,19.59
2022-12-08T06:57:36.165Z,19.58
2022-12-08T06:58:36.149Z,19.58
2022-12-08T06:59:36.211Z,19.58
2022-12-08T07:00:36.163Z,19.56
2022-12-08T07:01:36.226Z,19.56
2022-12-08T07:02:36.183Z,19.56
2022-12-08T07:03:36.096Z,19.55
2022-12-08T07:04:36.123Z,19.56
2022-12-08T07:05:36.065Z,19.56
2022-12-08T07:06:36.089Z,19.56
2022-12-08T07:07:36.109Z,19.56
2022-12-08T07:08:36.046Z,19.56
2022-12-08T07:09:36.025Z,19.54
2022-12-08T07:10:36.017Z,19.54
2022-12-08T07:11:36.005Z,19.51
2022-12-08T07:12:36.029Z,19.51
2022-12-08T07:13:35.985Z,19.51
2022-12-08T07:14:36.012Z,19.51
2022-12-08T07:15:35.970Z,19.51
2022-12-08T07:16:35.980Z,19.51
2022-12-08T07:17:35.938Z,19.51
2022-12-08T07:18:35.960Z,19.50
2022-12-08T07:19:35.921Z,19.50
2022-12-08T07:20:35.910Z,19.50
2022-12-08T07:21:35.895Z,19.51
2022-12-08T07:22:35.884Z,19.50
2022-12-08T07:23:35.877Z,19.50
2022-12-08T07:24:35.898Z,19.51
2022-12-08T07:25:35.850Z,19.51
2022-12-08T07:26:35.835Z,19.50
2022-12-08T07:27:35.833Z,19.51
2022-12-08T07:28:35.818Z,19.51
2022-12-08T07:29:35.817Z,19.50
2022-12-08T07:30:35.875Z,19.50
2022-12-08T07:31:35.783Z,19.50
2022-12-08T07:32:35.775Z,19.50
2022-12-08T07:33:35.767Z,19.51
2022-12-08T07:34:35.746Z,19.51
2022-12-08T07:35:35.736Z,19.51
2022-12-08T07:36:35.754Z,19.51
2022-12-08T07:37:35.714Z,19.50
2022-12-08T07:38:35.706Z,19.51
2022-12-08T07:39:35.694Z,19.51
2022-12-08T07:40:35.684Z,19.51
2022-12-08T07:41:35.671Z,19.54
2022-12-08T07:42:35.702Z,19.54
2022-12-08T07:43:35.651Z,19.54
2022-12-08T07:44:35.640Z,19.55
2022-12-08T07:45:35.620Z,19.55
2022-12-08T07:46:35.648Z,19.55
2022-12-08T07:47:35.632Z,19.56
2022-12-08T07:48:35.620Z,19.55
2022-12-08T07:49:35.607Z,19.55
2022-12-08T07:50:35.572Z,19.56
2022-12-08T07:51:35.563Z,19.55
2022-12-08T07:52:35.551Z,19.56
2022-12-08T07:53:35.536Z,19.56
2022-12-08T07:54:35.564Z,19.58
2022-12-08T07:55:35.519Z,19.58
2022-12-08T07:56:35.508Z,19.58
2022-12-08T07:57:35.491Z,19.58
2022-12-08T07:58:35.483Z,19.56
2022-12-08T07:59:35.472Z,19.58
2022-12-08T08:00:35.528Z,19.58
2022-12-08T08:01:35.550Z,19.55
2022-12-08T08:02:35.564Z,19.54
2022-12-08T08:03:35.424Z,19.55
2022-12-08T08:04:35.477Z,19.55
2022-12-08T08:05:35.400Z,19.55
2022-12-08T08:06:35.426Z,19.56
2022-12-08T08:07:35.388Z,19.55
2022-12-08T08:08:35.372Z,19.56
2022-12-08T08:09:35.356Z,19.56
2022-12-08T08:10:35.354Z,19.56
2022-12-08T08:11:35.341Z,19.55
2022-12-08T08:12:35.401Z,19.56
2022-12-08T08:13:35.317Z,19.54
2022-12-08T08:14:35.315Z,19.55
2022-12-08T08:15:35.464Z,19.56
2022-12-08T08:16:38.503Z,19.55
2022-12-08T08:17:35.500Z,19.55
2022-12-08T08:18:35.285Z,19.54
2022-12-08T08:19:35.252Z,19.55
2022-12-08T08:20:35.241Z,19.55
2022-12-08T08:21:50.727Z,19.54
2022-12-08T08:22:35.221Z,19.54
2022-12-08T08:23:35.209Z,19.54
2022-12-08T08:24:37.237Z,19.54
2022-12-08T08:25:35.201Z,19.54
2022-12-08T08:26:35.201Z,19.54
2022-12-08T08:27:35.169Z,19.54
2022-12-08T08:28:35.154Z,19.54
2022-12-08T08:29:35.141Z,19.54
2022-12-08T08:30:35.165Z,19.55
2022-12-08T08:31:35.228Z,19.54
2022-12-08T08:32:35.113Z,19.54
2022-12-08T08:33:35.101Z,19.51
2022-12-08T08:34:35.092Z,19.51
2022-12-08T08:35:35.075Z,19.51
2022-12-08T08:36:35.097Z,19.51
2022-12-08T08:37:35.058Z,19.51
2022-12-08T08:38:35.045Z,19.54
2022-12-08T08:39:35.026Z,19.51
2022-12-08T08:40:35.022Z,19.54
2022-12-08T08:41:35.016Z,19.51
2022-12-08T08:42:35.047Z,19.51
2022-12-08T08:43:38.412Z,19.51
2022-12-08T08:44:34.974Z,19.50
2022-12-08T08:45:34.968Z,19.54
2022-12-08T08:46:35.032Z,19.50
2022-12-08T08:47:34.943Z,19.51
2022-12-08T08:48:34.962Z,19.54
2022-12-08T08:49:34.920Z,19.51
2022-12-08T08:50:37.679Z,19.51
2022-12-08T08:51:34.903Z,19.51
2022-12-08T08:52:34.896Z,19.54
2022-12-08T08:53:34.878Z,19.54
2022-12-08T08:54:34.903Z,19.54
2022-12-08T08:55:34.860Z,19.51
2022-12-08T08:56:34.843Z,19.51
2022-12-08T08:57:34.835Z,19.55
2022-12-08T08:58:34.826Z,19.55
2022-12-08T08:59:34.811Z,19.56
2022-12-08T09:00:34.831Z,19.56
2022-12-08T09:01:34.851Z,19.56
2022-12-08T09:02:34.785Z,19.55
2022-12-08T09:03:34.770Z,19.56
2022-12-08T09:04:34.840Z,19.56
2022-12-08T09:05:34.750Z,19.56
2022-12-08T09:06:34.828Z,19.56
2022-12-08T09:07:34.723Z,19.55
2022-12-08T09:08:34.707Z,19.58
2022-12-08T09:09:34.699Z,19.56
2022-12-08T09:10:34.691Z,19.58
2022-12-08T09:11:34.683Z,19.56
2022-12-08T09:12:34.707Z,19.58
2022-12-08T09:13:34.663Z,19.58
2022-12-08T09:14:34.643Z,19.56
2022-12-08T09:15:34.669Z,19.56
2022-12-08T09:16:40.419Z,19.56
2022-12-08T09:17:34.620Z,19.56
2022-12-08T09:18:34.632Z,19.56
2022-12-08T09:19:34.592Z,19.56
2022-12-08T09:20:34.583Z,19.58
2022-12-08T09:21:34.567Z,19.58
2022-12-08T09:22:34.565Z,19.56
2022-12-08T09:23:35.768Z,19.56
2022-12-08T09:24:34.558Z,19.56
2022-12-08T09:25:34.529Z,19.56
2022-12-08T09:26:34.520Z,19.56
2022-12-08T09:27:34.504Z,19.56
2022-12-08T09:28:34.492Z,19.55
2022-12-08T09:29:36.336Z,19.55
2022-12-08T09:30:34.512Z,19.55
2022-12-08T09:31:34.540Z,19.56
2022-12-08T09:32:34.448Z,19.55
2022-12-08T09:33:34.432Z,19.55
2022-12-08T09:34:34.429Z,19.55
2022-12-08T09:35:34.420Z,19.55
2022-12-08T09:36:34.433Z,19.55
2022-12-08T09:37:34.392Z,19.55
2022-12-08T09:38:34.390Z,19.54
2022-12-08T09:39:34.372Z,19.54
2022-12-08T09:40:34.365Z,19.55
2022-12-08T09:41:39.258Z,19.54
2022-12-08T09:42:34.401Z,19.55
2022-12-08T09:43:34.328Z,19.55
2022-12-08T09:44:34.316Z,19.54
2022-12-08T09:45:34.312Z,19.54
2022-12-08T09:46:34.353Z,19.54
2022-12-08T09:47:36.198Z,19.55
2022-12-08T09:48:34.312Z,19.54
2022-12-08T09:49:34.262Z,19.54
2022-12-08T09:50:34.249Z,19.51
2022-12-08T09:51:34.241Z,19.51
2022-12-08T09:52:34.232Z,19.51
2022-12-08T09:53:35.918Z,19.51
2022-12-08T09:54:34.230Z,19.50
2022-12-08T09:55:34.197Z,19.51
2022-12-08T09:56:34.189Z,19.50
2022-12-08T09:57:34.169Z,19.51
2022-12-08T09:58:34.166Z,19.51
2022-12-08T09:59:34.158Z,19.51
2022-12-08T10:00:34.178Z,19.50
2022-12-08T10:01:34.176Z,19.50
2022-12-08T10:02:34.116Z,19.50
2022-12-08T10:03:34.109Z,19.50
2022-12-08T10:04:34.154Z,19.50
2022-12-08T10:05:34.127Z,19.50
2022-12-08T10:06:34.109Z,19.50
2022-12-08T10:07:34.061Z,19.50
2022-12-08T10:08:34.126Z,19.51
2022-12-08T10:09:34.042Z,19.50
2022-12-08T10:10:34.038Z,19.48
2022-12-08T10:11:34.025Z,19.48
2022-12-08T10:12:34.049Z,19.48
2022-12-08T10:13:34.002Z,19.50
2022-12-08T10:14:33.990Z,19.47
2022-12-08T10:15:33.976Z,19.48
2022-12-08T10:16:34.013Z,19.47
2022-12-08T10:17:33.955Z,19.50
2022-12-08T10:18:33.978Z,19.48
2022-12-08T10:19:33.940Z,19.48
2022-12-08T10:20:33.926Z,19.47
2022-12-08T10:21:33.910Z,19.48
2022-12-08T10:22:33.901Z,19.48
2022-12-08T10:23:33.895Z,19.48
2022-12-08T10:24:33.902Z,19.50
2022-12-08T10:25:33.867Z,19.48
2022-12-08T10:26:33.858Z,19.48
2022-12-08T10:27:33.850Z,19.48
2022-12-08T10:28:33.836Z,19.50
2022-12-08T10:29:33.823Z,19.48
2022-12-08T10:30:33.842Z,19.50
2022-12-08T10:31:33.871Z,19.48
2022-12-08T10:32:33.787Z,19.50
2022-12-08T10:33:33.776Z,19.50
2022-12-08T10:34:33.762Z,19.50
2022-12-08T10:35:33.753Z,19.50
2022-12-08T10:36:33.767Z,19.51
2022-12-08T10:37:33.736Z,19.50
2022-12-08T10:38:33.727Z,19.50
2022-12-08T10:39:33.711Z,19.48
2022-12-08T10:40:33.698Z,19.48
2022-12-08T10:41:33.683Z,19.51
2022-12-08T10:42:33.714Z,19.51
2022-12-08T10:43:33.676Z,19.51
2022-12-08T10:44:33.659Z,19.50
2022-12-08T10:45:33.644Z,19.50
2022-12-08T10:46:33.705Z,19.48
2022-12-08T10:47:33.624Z,19.51
2022-12-08T10:48:33.644Z,19.48
2022-12-08T10:49:33.595Z,19.50
2022-12-08T10:50:33.584Z,19.50
2022-12-08T10:51:33.580Z,19.50
2022-12-08T10:52:33.568Z,19.50
2022-12-08T10:53:33.563Z,19.50
2022-12-08T10:54:33.580Z,19.50
2022-12-08T10:55:33.527Z,19.50
2022-12-08T10:56:33.515Z,19.50
2022-12-08T10:57:33.528Z,19.51
2022-12-08T10:58:33.503Z,19.51
2022-12-08T10:59:33.488Z,19.51
2022-12-08T11:00:33.686Z,19.51
2022-12-08T11:01:33.552Z,19.51
2022-12-08T11:02:33.496Z,19.50
2022-12-08T11:03:33.444Z,19.50
2022-12-08T11:04:33.428Z,19.50
2022-12-08T11:05:33.424Z,19.51
2022-12-08T11:06:33.444Z,19.51
2022-12-08T11:07:33.400Z,19.50
2022-12-08T11:08:33.498Z,19.48
2022-12-08T11:09:33.382Z,19.50
2022-12-08T11:10:33.369Z,19.50
2022-12-08T11:11:33.352Z,19.50
2022-12-08T11:12:33.367Z,19.51
2022-12-08T11:13:33.337Z,19.50
2022-12-08T11:14:33.324Z,19.50
2022-12-08T11:15:33.308Z,19.50
2022-12-08T11:16:33.373Z,19.51
2022-12-08T11:17:33.288Z,19.50
2022-12-08T11:18:33.313Z,19.48
2022-12-08T11:19:33.269Z,19.50
2022-12-08T11:20:33.264Z,19.50
2022-12-08T11:21:33.252Z,19.50
2022-12-08T11:22:33.237Z,19.48
2022-12-08T11:23:33.224Z,19.50
2022-12-08T11:24:37.368Z,19.50
2022-12-08T11:25:33.200Z,19.50
2022-12-08T11:26:33.197Z,19.50
2022-12-08T11:27:33.183Z,19.51
2022-12-08T11:28:33.170Z,19.54
2022-12-08T11:29:33.161Z,19.51
2022-12-08T11:30:33.188Z,19.54
2022-12-08T11:31:33.232Z,19.54
2022-12-08T11:32:33.122Z,19.56
2022-12-08T11:33:33.164Z,19.56
2022-12-08T11:34:33.107Z,19.58
2022-12-08T11:35:33.097Z,19.59
2022-12-08T11:36:33.128Z,19.58
2022-12-08T11:37:35.280Z,19.55
2022-12-08T11:38:33.053Z,19.55
2022-12-08T11:39:33.049Z,19.54
2022-12-08T11:40:33.037Z,19.54
2022-12-08T11:41:33.021Z,19.51
2022-12-08T11:42:33.057Z,19.50
2022-12-08T11:43:33.001Z,19.50
2022-12-08T11:44:32.989Z,19.50
2022-12-08T11:45:33.035Z,19.50
2022-12-08T11:46:33.155Z,19.47
2022-12-08T11:47:32.954Z,19.50
2022-12-08T11:48:32.993Z,19.48
2022-12-08T11:49:32.942Z,19.47
2022-12-08T11:50:32.932Z,19.47
2022-12-08T11:51:32.936Z,19.47
2022-12-08T11:52:32.949Z,19.46
2022-12-08T11:53:32.897Z,19.48
2022-12-08T11:54:32.961Z,19.47
2022-12-08T11:55:37.095Z,19.46
2022-12-08T11:56:32.885Z,19.46
2022-12-08T11:57:32.927Z,19.46
2022-12-08T11:58:32.841Z,19.46
2022-12-08T11:59:32.837Z,19.46
2022-12-08T12:00:32.851Z,19.46
2022-12-08T12:01:33.995Z,19.44
2022-12-08T12:02:32.849Z,19.46
2022-12-08T12:03:32.832Z,19.44
2022-12-08T12:04:32.773Z,19.47
2022-12-08T12:06:05.387Z,19.46
2022-12-08T12:06:54.138Z,19.44
2022-12-08T12:07:32.747Z,19.43
2022-12-08T12:08:32.735Z,19.43
2022-12-08T12:09:32.726Z,19.41
2022-12-08T12:10:32.713Z,19.41
2022-12-08T12:11:32.706Z,19.43
2022-12-08T12:12:39.257Z,19.43
2022-12-08T12:13:32.682Z,19.43
2022-12-08T12:14:32.666Z,19.43
2022-12-08T12:15:32.653Z,19.43
2022-12-08T12:16:32.677Z,19.41
2022-12-08T12:17:32.634Z,19.41
2022-12-08T12:18:32.667Z,19.41
2022-12-08T12:19:32.615Z,19.41
2022-12-08T12:20:32.603Z,19.41
2022-12-08T12:21:32.594Z,19.41
2022-12-08T12:22:32.579Z,19.41
2022-12-08T12:23:32.572Z,19.41
2022-12-08T12:24:35.829Z,19.43
2022-12-08T12:25:32.551Z,19.41
2022-12-08T12:26:32.535Z,19.41
2022-12-08T12:27:32.575Z,19.41
2022-12-08T12:28:32.518Z,19.41
2022-12-08T12:29:32.503Z,19.43
2022-12-08T12:30:32.607Z,19.43
2022-12-08T12:31:32.482Z,19.43
2022-12-08T12:32:32.476Z,19.44
2022-12-08T12:33:32.455Z,19.43
2022-12-08T12:34:32.450Z,19.44
2022-12-08T12:35:32.431Z,19.43
2022-12-08T12:36:32.451Z,19.43
2022-12-08T12:37:32.416Z,19.43
2022-12-08T12:38:32.403Z,19.44
2022-12-08T12:39:32.391Z,19.43
2022-12-08T12:40:32.383Z,19.41
2022-12-08T12:41:32.371Z,19.43
2022-12-08T12:42:32.439Z,19.43
2022-12-08T12:43:32.360Z,19.43
2022-12-08T12:44:32.362Z,19.43
2022-12-08T12:45:32.323Z,19.43
2022-12-08T12:46:32.375Z,19.43
2022-12-08T12:47:32.308Z,19.43
2022-12-08T12:48:32.328Z,19.43
2022-12-08T12:49:32.280Z,19.43
2022-12-08T12:50:32.269Z,19.44
2022-12-08T12:51:32.256Z,19.41
2022-12-08T12:52:32.253Z,19.44